Time;durP1;ratioP1;P1;durP2;ratioP2;P2;SDS_P1;SDS_P2;PMS_P1;PMS_P2;Temp;Humidity;BMP_temperature;BMP_pressure;BME280_temperature;BME280_humidity;BME280_pressure;Samples;Min_cycle;Max_cycle;Signal;HPM_P1;HPM_P2
2022/09/30 00:00:57;;;;;;;16.35;8.00;;;9.10;99.90;;;;;;5051783;28;20229;-63
2022/09/30 00:03:24;;;;;;;15.23;8.10;;;9.00;99.90;;;;;;5024126;28;20059;-64
2022/09/30 00:06:01;;;;;;;18.05;8.88;;;9.00;99.90;;;;;;5033874;28;20482;-63
2022/09/30 00:08:34;;;;;;;11.32;8.07;;;9.00;99.90;;;;;;5024777;28;20110;-63
2022/09/30 00:11:03;;;;;;;17.08;7.95;;;9.00;99.90;;;;;;5033918;28;20045;-64
2022/09/30 00:13:31;;;;;;;16.50;7.93;;;9.00;99.90;;;;;;5023524;28;20361;-64
2022/09/30 00:15:58;;;;;;;13.75;6.35;;;9.00;99.90;;;;;;5035012;28;20041;-64
2022/09/30 00:18:28;;;;;;;14.70;7.07;;;9.00;99.90;;;;;;5044848;28;20397;-64
2022/09/30 00:20:55;;;;;;;13.95;7.80;;;9.00;99.90;;;;;;5032681;28;20058;-64
2022/09/30 00:23:22;;;;;;;11.27;7.03;;;8.90;99.90;;;;;;5044909;28;20151;-64
2022/09/30 00:25:49;;;;;;;15.02;7.07;;;8.90;99.90;;;;;;5014950;28;20183;-64
2022/09/30 00:28:16;;;;;;;11.05;6.20;;;8.90;99.90;;;;;;5044835;28;20444;-63
2022/09/30 00:30:43;;;;;;;11.10;6.38;;;8.90;99.90;;;;;;5015154;28;20049;-64
2022/09/30 00:33:10;;;;;;;11.55;6.68;;;8.80;99.90;;;;;;5042114;28;20048;-64
2022/09/30 00:35:37;;;;;;;10.60;7.13;;;8.80;99.90;;;;;;5035210;28;20046;-64
2022/09/30 00:38:04;;;;;;;13.05;7.07;;;8.80;99.90;;;;;;5039872;28;20049;-64
2022/09/30 00:40:31;;;;;;;11.02;5.90;;;8.70;99.90;;;;;;5037161;28;20073;-63
2022/09/30 00:42:58;;;;;;;12.38;6.35;;;8.70;99.90;;;;;;5019666;28;20045;-64
2022/09/30 00:45:28;;;;;;;9.88;6.03;;;8.70;99.90;;;;;;5039322;28;20057;-64
2022/09/30 00:48:01;;;;;;;11.18;5.80;;;8.60;99.90;;;;;;5018070;28;20125;-64
2022/09/30 00:50:33;;;;;;;9.93;6.03;;;8.60;99.90;;;;;;5022578;28;20057;-64
2022/09/30 00:53:11;;;;;;;15.10;6.40;;;8.70;99.90;;;;;;5019468;28;20278;-64
2022/09/30 00:55:47;;;;;;;10.75;6.38;;;8.60;99.90;;;;;;5042322;28;20053;-64
2022/09/30 00:58:43;;;;;;;12.30;6.32;;;8.60;99.90;;;;;;5034772;28;20073;-63
2022/09/30 01:01:10;;;;;;;10.82;7.03;;;8.50;99.90;;;;;;5022099;28;20045;-64
2022/09/30 01:03:39;;;;;;;11.02;6.60;;;8.50;99.90;;;;;;5036591;28;20048;-64
2022/09/30 01:06:06;;;;;;;9.43;5.60;;;8.50;99.90;;;;;;5014499;28;20049;-63
2022/09/30 01:08:36;;;;;;;11.27;6.43;;;8.40;99.90;;;;;;5015513;28;20056;-64
2022/09/30 01:11:03;;;;;;;12.07;6.47;;;8.40;99.90;;;;;;5040639;28;20129;-63
2022/09/30 01:13:34;;;;;;;10.23;5.70;;;8.40;99.90;;;;;;5033236;28;20064;-65
2022/09/30 01:16:06;;;;;;;13.02;6.88;;;8.40;99.90;;;;;;5024946;28;20045;-63
2022/09/30 01:18:49;;;;;;;12.75;6.07;;;8.30;99.90;;;;;;5032828;28;20075;-64
2022/09/30 01:21:33;;;;;;;16.33;5.55;;;8.30;99.90;;;;;;5025827;28;20076;-63
2022/09/30 01:24:14;;;;;;;9.27;5.32;;;8.40;99.90;;;;;;5030853;28;20051;-64
2022/09/30 01:27:14;;;;;;;10.00;5.35;;;8.40;99.90;;;;;;5010537;28;20056;-63
2022/09/30 01:29:40;;;;;;;8.10;5.53;;;8.40;99.90;;;;;;5044460;28;20520;-63
2022/09/30 01:32:13;;;;;;;9.07;5.78;;;8.40;99.90;;;;;;5045939;28;20514;-63
2022/09/30 01:35:03;;;;;;;9.20;5.50;;;8.40;99.90;;;;;;5046055;28;20041;-64
2022/09/30 01:37:44;;;;;;;10.27;5.38;;;8.40;99.90;;;;;;5047205;28;20055;-64
2022/09/30 01:40:21;;;;;;;8.98;5.68;;;8.50;99.90;;;;;;5025976;28;20063;-63
2022/09/30 01:43:04;;;;;;;14.98;6.45;;;8.50;99.90;;;;;;5048262;28;20051;-62
2022/09/30 01:45:43;;;;;;;7.65;6.00;;;8.50;99.90;;;;;;5024349;28;20046;-63
2022/09/30 01:48:14;;;;;;;13.27;5.65;;;8.60;99.90;;;;;;5049855;28;20053;-63
2022/09/30 01:51:05;;;;;;;13.82;5.82;;;8.70;99.90;;;;;;5007993;28;20045;-63
2022/09/30 01:53:56;;;;;;;10.13;5.35;;;8.70;99.90;;;;;;5013487;28;20505;-62
2022/09/30 01:56:28;;;;;;;9.55;5.35;;;8.80;99.90;;;;;;5043857;28;20045;-63
2022/09/30 01:59:06;;;;;;;12.15;6.57;;;8.80;99.90;;;;;;5031422;28;20052;-63
2022/09/30 02:02:07;;;;;;;9.98;5.28;;;8.80;99.90;;;;;;4997759;28;20053;-63
2022/09/30 02:04:39;;;;;;;9.48;5.20;;;8.80;99.90;;;;;;4985987;28;20050;-63
2022/09/30 02:07:09;;;;;;;8.43;5.43;;;8.80;99.90;;;;;;5022496;28;20051;-63
2022/09/30 02:09:49;;;;;;;10.43;5.97;;;8.90;99.90;;;;;;5019595;28;20110;-63
2022/09/30 02:12:18;;;;;;;7.10;5.30;;;8.80;99.90;;;;;;5025115;28;20090;-63
2022/09/30 02:15:16;;;;;;;9.43;5.50;;;8.80;99.90;;;;;;5037763;28;20049;-62
2022/09/30 02:17:48;;;;;;;13.85;5.40;;;8.80;99.90;;;;;;5042185;28;20049;-63
2022/09/30 02:20:20;;;;;;;11.40;6.10;;;8.80;99.90;;;;;;5002238;28;20053;-63
2022/09/30 02:22:49;;;;;;;10.88;5.72;;;8.80;99.90;;;;;;5017879;28;20051;-63
2022/09/30 02:25:19;;;;;;;10.18;5.28;;;8.70;99.90;;;;;;5036706;28;20397;-63
2022/09/30 02:27:49;;;;;;;11.95;5.88;;;8.70;99.90;;;;;;5016097;28;20053;-63
2022/09/30 02:30:16;;;;;;;10.15;6.05;;;8.60;99.90;;;;;;5034067;28;20056;-63
2022/09/30 02:32:49;;;;;;;10.02;5.28;;;8.60;99.90;;;;;;5026026;28;20057;-63
2022/09/30 02:35:46;;;;;;;11.50;5.50;;;8.60;99.90;;;;;;5037102;28;20131;-64
2022/09/30 02:38:22;;;;;;;6.80;4.78;;;8.60;99.90;;;;;;5025601;28;20474;-63
2022/09/30 02:40:54;;;;;;;12.32;5.38;;;8.60;99.90;;;;;;5020621;28;20370;-63
2022/09/30 02:43:21;;;;;;;10.25;5.97;;;8.50;99.90;;;;;;5025033;28;20037;-63
2022/09/30 02:46:00;;;;;;;7.53;4.65;;;8.50;99.90;;;;;;5036781;28;20484;-63
2022/09/30 02:48:36;;;;;;;10.00;5.15;;;8.50;99.90;;;;;;5042076;28;20070;-63
2022/09/30 02:51:36;;;;;;;7.60;5.30;;;8.40;99.90;;;;;;5037452;28;20059;-63
2022/09/30 02:54:27;;;;;;;10.40;5.38;;;8.50;99.90;;;;;;5025550;28;20080;-63
2022/09/30 02:57:05;;;;;;;9.65;5.82;;;8.40;99.90;;;;;;5052942;28;20414;-63
2022/09/30 02:59:32;;;;;;;10.20;5.60;;;8.40;99.90;;;;;;5007169;28;20050;-63
2022/09/30 03:01:59;;;;;;;7.97;5.15;;;8.50;99.90;;;;;;5033767;28;20377;-62
2022/09/30 03:04:28;;;;;;;10.93;5.43;;;8.50;99.90;;;;;;5045249;28;20497;-62
2022/09/30 03:06:54;;;;;;;7.80;5.05;;;8.60;99.90;;;;;;5002271;28;20045;-63
2022/09/30 03:09:25;;;;;;;8.65;4.93;;;8.70;99.90;;;;;;5027554;28;20420;-63
2022/09/30 03:11:55;;;;;;;10.82;6.38;;;8.70;99.90;;;;;;5016908;28;20050;-64
2022/09/30 03:14:24;;;;;;;8.23;5.13;;;8.80;99.90;;;;;;5008103;28;20047;-63
2022/09/30 03:17:24;;;;;;;13.30;6.38;;;8.80;99.90;;;;;;5054493;28;20076;-62
2022/09/30 03:20:11;;;;;;;9.98;5.72;;;8.90;99.90;;;;;;5027351;28;20059;-64
2022/09/30 03:23:03;;;;;;;10.10;5.28;;;8.90;99.90;;;;;;5017303;28;20041;-64
2022/09/30 03:25:36;;;;;;;9.00;5.32;;;9.00;99.90;;;;;;5044762;28;20055;-63
2022/09/30 03:28:24;;;;;;;8.88;5.65;;;9.10;99.90;;;;;;5052172;28;20496;-64
2022/09/30 03:31:17;;;;;;;6.55;4.30;;;9.10;99.90;;;;;;5035016;28;20104;-63
2022/09/30 03:33:46;;;;;;;8.48;4.80;;;9.20;99.90;;;;;;5051740;28;20053;-64
2022/09/30 03:36:25;;;;;;;14.15;5.35;;;9.20;99.90;;;;;;5038726;28;20140;-63
2022/09/30 03:38:58;;;;;;;9.40;4.55;;;9.20;99.90;;;;;;5038003;28;20059;-63
2022/09/30 03:41:46;;;;;;;7.03;4.57;;;9.30;99.90;;;;;;5038785;28;20045;-64
2022/09/30 03:44:31;;;;;;;8.00;5.15;;;9.30;99.90;;;;;;5018136;28;20046;-63
2022/09/30 03:47:00;;;;;;;9.85;4.50;;;9.30;99.90;;;;;;5024343;28;20521;-64
2022/09/30 03:49:29;;;;;;;7.15;4.90;;;9.40;99.90;;;;;;4999832;28;20049;-63
2022/09/30 03:51:56;;;;;;;12.20;5.70;;;9.40;99.90;;;;;;5026803;28;20063;-63
2022/09/30 03:54:24;;;;;;;13.23;5.43;;;9.40;99.90;;;;;;5035383;28;20049;-64
2022/09/30 03:56:53;;;;;;;8.85;5.47;;;9.50;99.90;;;;;;5035221;28;20072;-62
2022/09/30 03:59:27;;;;;;;7.70;5.88;;;9.50;99.90;;;;;;5032846;28;20044;-63
2022/09/30 04:01:55;;;;;;;7.15;5.20;;;9.50;99.90;;;;;;5028695;28;20402;-63
2022/09/30 04:04:22;;;;;;;7.43;5.13;;;9.60;99.90;;;;;;5049296;28;20071;-62
2022/09/30 04:06:49;;;;;;;9.52;4.97;;;9.60;99.90;;;;;;5049225;28;20044;-63
2022/09/30 04:09:16;;;;;;;9.00;5.13;;;9.70;99.90;;;;;;5044378;28;20055;-63
2022/09/30 04:11:43;;;;;;;8.35;5.75;;;9.70;99.90;;;;;;5015073;28;20041;-63
2022/09/30 04:14:10;;;;;;;8.80;5.80;;;9.70;99.90;;;;;;5044431;28;20055;-62
2022/09/30 04:16:37;;;;;;;9.57;5.78;;;9.70;99.90;;;;;;5041115;28;20041;-62
2022/09/30 04:19:03;;;;;;;7.68;5.60;;;9.80;99.90;;;;;;5051936;28;20049;-61
2022/09/30 04:21:30;;;;;;;11.75;5.53;;;9.80;99.90;;;;;;5026253;28;20059;-62
2022/09/30 04:23:57;;;;;;;12.60;6.82;;;9.70;99.90;;;;;;5015359;28;20512;-63
2022/09/30 04:26:25;;;;;;;8.77;6.13;;;9.80;99.90;;;;;;5045042;28;20048;-63
2022/09/30 04:28:52;;;;;;;8.70;5.03;;;9.90;99.90;;;;;;5015042;28;20049;-63
2022/09/30 04:31:19;;;;;;;8.02;4.60;;;9.90;99.90;;;;;;5026854;28;20059;-63
2022/09/30 04:33:46;;;;;;;10.75;6.00;;;9.90;99.90;;;;;;5033518;28;20185;-64
2022/09/30 04:36:13;;;;;;;12.05;6.57;;;10.00;99.90;;;;;;5041965;28;20080;-63
2022/09/30 04:38:40;;;;;;;15.10;6.55;;;10.00;99.90;;;;;;5035368;28;20045;-63
2022/09/30 04:41:08;;;;;;;10.45;6.72;;;10.10;99.90;;;;;;5022354;28;20059;-63
2022/09/30 04:43:35;;;;;;;12.57;6.35;;;10.10;99.90;;;;;;5004813;28;20046;-63
2022/09/30 04:46:02;;;;;;;11.98;6.18;;;10.10;99.90;;;;;;5041624;28;20075;-64
2022/09/30 04:48:30;;;;;;;13.88;7.53;;;10.20;99.90;;;;;;5024469;28;20049;-64
2022/09/30 04:50:58;;;;;;;17.20;7.68;;;10.10;99.90;;;;;;5002370;28;20076;-63
2022/09/30 04:53:25;;;;;;;16.83;8.20;;;10.20;99.90;;;;;;5024876;28;20045;-63
2022/09/30 04:56:00;;;;;;;22.35;9.45;;;10.20;99.90;;;;;;5016007;28;20132;-63
2022/09/30 04:58:27;;;;;;;16.65;8.30;;;10.30;99.90;;;;;;5041869;28;20051;-63
2022/09/30 05:01:11;;;;;;;13.23;8.20;;;10.30;99.90;;;;;;5050868;28;20486;-64
2022/09/30 05:03:38;;;;;;;13.73;7.60;;;10.30;99.90;;;;;;4988054;28;20408;-63
2022/09/30 05:06:04;;;;;;;12.68;8.30;;;10.40;99.90;;;;;;5031727;28;20045;-63
2022/09/30 05:08:32;;;;;;;20.73;9.23;;;10.40;99.90;;;;;;5012570;28;20055;-63
2022/09/30 05:11:01;;;;;;;16.05;9.30;;;10.40;99.90;;;;;;5015581;28;20140;-66
2022/09/30 05:13:32;;;;;;;15.63;7.95;;;10.40;99.90;;;;;;5028890;28;20048;-63
2022/09/30 05:15:59;;;;;;;24.45;10.20;;;10.40;99.90;;;;;;5014217;28;20057;-64
2022/09/30 05:18:25;;;;;;;14.70;9.30;;;10.40;99.90;;;;;;5044027;28;20095;-63
2022/09/30 05:20:53;;;;;;;16.00;9.40;;;10.40;99.90;;;;;;5031449;28;20053;-64
2022/09/30 05:23:19;;;;;;;17.33;9.07;;;10.40;99.90;;;;;;5044068;28;20048;-64
2022/09/30 05:25:46;;;;;;;15.95;8.43;;;10.50;99.90;;;;;;5013900;28;20061;-63
2022/09/30 05:28:13;;;;;;;21.15;9.98;;;10.50;99.90;;;;;;5025527;28;20409;-63
2022/09/30 05:30:43;;;;;;;20.45;9.77;;;10.50;99.90;;;;;;5032388;28;20053;-63
2022/09/30 05:33:10;;;;;;;22.23;12.15;;;10.50;99.90;;;;;;5040876;28;20131;-65
2022/09/30 05:35:38;;;;;;;24.17;12.20;;;10.50;99.90;;;;;;4999888;28;20493;-64
2022/09/30 05:38:05;;;;;;;26.52;11.93;;;10.50;99.90;;;;;;5033543;28;20049;-63
2022/09/30 05:40:32;;;;;;;28.90;13.65;;;10.50;99.90;;;;;;5046677;28;20053;-61
2022/09/30 05:42:59;;;;;;;39.60;13.95;;;10.40;99.90;;;;;;5045792;28;20513;-63
2022/09/30 05:45:26;;;;;;;27.95;14.02;;;10.40;99.90;;;;;;5026466;28;20049;-65
2022/09/30 05:47:53;;;;;;;39.08;15.60;;;10.40;99.90;;;;;;5047220;28;20053;-63
2022/09/30 05:50:20;;;;;;;39.58;15.70;;;10.40;99.90;;;;;;5008581;28;20051;-64
2022/09/30 05:52:50;;;;;;;33.85;14.98;;;10.40;99.90;;;;;;5047432;28;20133;-64
2022/09/30 05:55:18;;;;;;;32.60;15.27;;;10.50;99.90;;;;;;5040895;28;20053;-62
2022/09/30 05:57:48;;;;;;;38.92;16.38;;;10.50;99.90;;;;;;5051264;28;20053;-68
2022/09/30 06:00:16;;;;;;;44.63;15.07;;;10.50;99.90;;;;;;5013902;28;20059;-63
2022/09/30 06:02:43;;;;;;;33.10;15.18;;;10.60;99.90;;;;;;5000165;28;20602;-64
2022/09/30 06:05:10;;;;;;;40.08;15.05;;;10.60;99.90;;;;;;5042472;28;20053;-64
2022/09/30 06:07:37;;;;;;;38.45;13.70;;;10.60;99.90;;;;;;5013536;28;20133;-64
2022/09/30 06:10:06;;;;;;;34.75;15.00;;;10.50;99.90;;;;;;5025827;28;20044;-65
2022/09/30 06:12:35;;;;;;;32.47;15.02;;;10.50;99.90;;;;;;5013639;28;20413;-65
2022/09/30 06:15:02;;;;;;;31.58;13.77;;;10.50;99.90;;;;;;5025282;28;20173;-64
2022/09/30 06:17:28;;;;;;;29.60;15.50;;;10.50;99.90;;;;;;5015275;28;20472;-64
2022/09/30 06:19:55;;;;;;;41.25;15.27;;;10.50;99.90;;;;;;5039128;28;20072;-62
2022/09/30 06:22:22;;;;;;;36.13;16.20;;;10.50;99.90;;;;;;5044329;28;20358;-64
2022/09/30 06:24:49;;;;;;;30.95;14.95;;;10.50;99.90;;;;;;5039724;28;20053;-64
2022/09/30 06:27:20;;;;;;;32.17;13.57;;;10.50;99.90;;;;;;5016342;28;20501;-63
2022/09/30 06:29:48;;;;;;;31.17;15.15;;;10.50;99.90;;;;;;5037916;28;20045;-65
2022/09/30 06:32:16;;;;;;;37.50;12.52;;;10.50;99.90;;;;;;5015051;28;20358;-64
2022/09/30 06:34:43;;;;;;;29.70;12.02;;;10.50;99.90;;;;;;4669082;28;9999842;-65
2022/09/30 06:37:12;;;;;;;27.83;13.45;;;10.40;99.90;;;;;;5016690;28;20096;-64
2022/09/30 06:39:40;;;;;;;49.20;12.52;;;10.50;99.90;;;;;;5030247;28;20059;-65
2022/09/30 06:42:08;;;;;;;37.30;11.75;;;10.40;99.90;;;;;;5016565;28;20457;-64
2022/09/30 06:44:34;;;;;;;35.72;11.88;;;10.40;99.90;;;;;;4993456;28;20034;-64
2022/09/30 06:47:15;;;;;;;30.80;12.30;;;10.30;99.90;;;;;;5011054;28;20459;-63
2022/09/30 06:49:52;;;;;;;22.95;12.05;;;10.40;99.90;;;;;;5029088;28;20041;-64
2022/09/30 06:52:19;;;;;;;28.50;11.60;;;10.40;99.90;;;;;;5036626;28;20067;-61
2022/09/30 06:54:46;;;;;;;23.67;11.82;;;10.40;99.90;;;;;;5043478;28;20343;-63
2022/09/30 06:57:12;;;;;;;23.48;12.07;;;10.50;99.90;;;;;;5018839;28;20132;-64
2022/09/30 06:59:39;;;;;;;28.48;14.82;;;10.60;99.90;;;;;;5029646;28;20059;-65
2022/09/30 07:02:08;;;;;;;32.55;12.18;;;10.60;99.90;;;;;;4998123;28;20059;-65
2022/09/30 07:04:35;;;;;;;22.80;11.70;;;10.70;99.90;;;;;;5030855;28;20051;-65
2022/09/30 07:07:02;;;;;;;18.60;11.45;;;10.70;99.90;;;;;;5018167;28;20053;-65
2022/09/30 07:09:29;;;;;;;28.25;8.88;;;10.60;99.90;;;;;;5048983;28;20064;-65
2022/09/30 07:11:56;;;;;;;28.40;11.40;;;10.50;99.90;;;;;;5037441;28;20137;-64
2022/09/30 07:14:22;;;;;;;23.02;10.65;;;10.50;99.90;;;;;;5049751;28;20041;-64
2022/09/30 07:16:51;;;;;;;24.67;11.13;;;10.50;99.90;;;;;;5037985;28;20050;-63
2022/09/30 07:19:21;;;;;;;22.50;10.70;;;10.60;99.90;;;;;;5030166;28;20072;-63
2022/09/30 07:21:49;;;;;;;22.13;11.38;;;10.60;99.90;;;;;;5033249;28;20049;-64
2022/09/30 07:24:16;;;;;;;27.10;11.65;;;10.70;99.90;;;;;;5029816;28;20057;-64
2022/09/30 07:26:46;;;;;;;21.23;12.48;;;10.70;99.90;;;;;;5021789;28;20049;-64
2022/09/30 07:29:13;;;;;;;22.45;12.43;;;10.70;99.90;;;;;;5008913;28;20079;-65
2022/09/30 07:31:39;;;;;;;24.50;12.13;;;10.70;99.90;;;;;;5005759;28;20413;-64
2022/09/30 07:34:07;;;;;;;21.73;12.05;;;10.70;99.90;;;;;;5006877;28;20431;-63
2022/09/30 07:36:35;;;;;;;25.55;12.20;;;10.80;99.90;;;;;;5019979;28;20050;-65
2022/09/30 07:39:04;;;;;;;20.88;10.93;;;10.90;99.90;;;;;;4992339;28;20133;-64
2022/09/30 07:41:32;;;;;;;19.42;11.65;;;10.90;99.90;;;;;;5007643;28;20050;-64
2022/09/30 07:43:59;;;;;;;22.27;11.82;;;10.90;99.90;;;;;;5019640;28;20196;-64
2022/09/30 07:46:28;;;;;;;19.85;11.45;;;10.90;99.90;;;;;;4994317;28;20041;-64
2022/09/30 07:48:59;;;;;;;22.05;12.25;;;11.00;99.90;;;;;;5003130;28;20623;-64
2022/09/30 07:51:31;;;;;;;23.63;14.25;;;11.00;99.90;;;;;;5011244;28;20065;-64
2022/09/30 07:54:00;;;;;;;20.42;12.20;;;11.00;99.90;;;;;;4989971;28;20096;-64
2022/09/30 07:56:27;;;;;;;18.23;11.48;;;11.10;99.90;;;;;;5008779;28;20060;-63
2022/09/30 07:59:02;;;;;;;21.75;13.38;;;11.20;99.90;;;;;;5020776;28;20069;-64
2022/09/30 08:01:30;;;;;;;21.67;12.13;;;11.30;99.90;;;;;;5009663;28;20045;-63
2022/09/30 08:03:59;;;;;;;18.38;12.82;;;11.40;99.90;;;;;;5006589;28;20148;-64
2022/09/30 08:06:27;;;;;;;15.50;11.10;;;11.50;99.90;;;;;;4992092;28;20072;-64
2022/09/30 08:08:54;;;;;;;20.90;11.68;;;11.70;99.90;;;;;;5003407;28;20136;-64
2022/09/30 08:11:21;;;;;;;18.55;11.95;;;11.80;99.90;;;;;;4976400;28;20107;-63
2022/09/30 08:13:52;;;;;;;17.65;11.32;;;12.00;99.90;;;;;;5021859;28;20041;-64
2022/09/30 08:16:19;;;;;;;15.07;11.65;;;12.20;99.90;;;;;;5010293;28;20386;-65
2022/09/30 08:18:46;;;;;;;18.23;12.52;;;12.40;99.90;;;;;;4988005;28;20112;-64
2022/09/30 08:21:13;;;;;;;15.38;11.70;;;12.60;99.90;;;;;;5012226;28;20053;-64
2022/09/30 08:23:40;;;;;;;18.13;11.30;;;12.70;99.90;;;;;;4991460;28;20064;-65
2022/09/30 08:26:11;;;;;;;16.20;10.32;;;12.80;99.90;;;;;;5038942;28;20065;-65
2022/09/30 08:28:38;;;;;;;15.15;9.80;;;13.00;99.90;;;;;;5029368;28;20052;-64
2022/09/30 08:31:10;;;;;;;13.48;9.75;;;13.10;99.90;;;;;;5034475;28;20140;-64
2022/09/30 08:33:37;;;;;;;16.70;10.02;;;13.20;99.90;;;;;;5018619;28;20049;-64
2022/09/30 08:36:05;;;;;;;14.98;9.98;;;13.40;99.90;;;;;;5052000;28;20053;-65
2022/09/30 08:38:32;;;;;;;13.95;9.60;;;13.50;99.90;;;;;;5048100;28;20049;-64
2022/09/30 08:41:22;;;;;;;12.40;7.88;;;13.60;99.90;;;;;;5006412;28;20056;-65
2022/09/30 08:44:01;;;;;;;12.93;8.45;;;13.70;99.90;;;;;;5026952;28;20041;-64
2022/09/30 08:46:51;;;;;;;14.10;9.07;;;13.90;99.90;;;;;;5042578;28;20480;-65
2022/09/30 08:49:48;;;;;;;18.23;9.55;;;14.10;99.90;;;;;;5012421;28;20138;-65
2022/09/30 08:52:26;;;;;;;11.07;6.13;;;14.30;99.90;;;;;;5047104;28;20056;-65
2022/09/30 08:55:19;;;;;;;9.07;5.70;;;14.60;99.90;;;;;;4999319;28;20049;-65
2022/09/30 08:57:46;;;;;;;10.35;5.43;;;14.90;99.90;;;;;;5012076;28;20046;-64
2022/09/30 09:00:16;;;;;;;7.32;5.10;;;15.10;99.90;;;;;;5015529;28;20055;-64
2022/09/30 09:02:59;;;;;;;9.23;6.55;;;15.10;99.90;;;;;;4998256;28;20065;-64
2022/09/30 09:05:41;;;;;;;10.90;5.55;;;15.00;99.90;;;;;;5037297;28;20136;-63
2022/09/30 09:08:48;;;;;;;10.32;6.18;;;15.00;99.90;;;;;;5027136;28;20064;-64
2022/09/30 09:11:46;;;;;;;8.75;5.88;;;15.00;99.90;;;;;;5018794;28;20056;-60
2022/09/30 09:14:16;;;;;;;9.20;6.28;;;15.00;99.90;;;;;;5046740;28;20056;-64
2022/09/30 09:16:57;;;;;;;10.52;6.82;;;15.10;99.90;;;;;;5037363;28;20045;-64
2022/09/30 09:19:25;;;;;;;13.32;7.63;;;15.20;99.90;;;;;;5028513;28;20045;-64
2022/09/30 09:21:52;;;;;;;11.13;7.55;;;15.10;99.90;;;;;;5014376;28;20533;-64
2022/09/30 09:24:34;;;;;;;13.00;6.38;;;15.10;99.90;;;;;;5047805;28;20498;-64
2022/09/30 09:27:02;;;;;;;9.52;7.15;;;15.10;99.90;;;;;;5022054;28;20128;-64
2022/09/30 09:29:42;;;;;;;9.50;7.10;;;15.10;99.90;;;;;;4995191;28;20049;-64
2022/09/30 09:32:16;;;;;;;13.07;7.78;;;15.10;99.90;;;;;;5027811;28;20473;-63
2022/09/30 09:34:43;;;;;;;13.18;7.10;;;15.10;99.90;;;;;;5020630;28;20527;-65
2022/09/30 09:37:21;;;;;;;10.77;7.47;;;15.10;99.90;;;;;;5039532;28;20050;-65
2022/09/30 09:40:11;;;;;;;14.65;6.43;;;15.00;99.90;;;;;;4995712;28;20067;-65
2022/09/30 09:43:08;;;;;;;11.43;7.57;;;15.10;99.90;;;;;;5022031;28;20045;-65
2022/09/30 09:45:49;;;;;;;8.32;5.60;;;15.20;99.90;;;;;;5014622;28;20069;-64
2022/09/30 09:48:16;;;;;;;18.27;7.45;;;15.20;99.90;;;;;;5037631;28;20061;-65
2022/09/30 09:50:54;;;;;;;10.25;5.78;;;15.20;99.90;;;;;;5029328;28;20497;-65
2022/09/30 09:53:21;;;;;;;10.77;6.95;;;15.20;99.90;;;;;;5038313;28;20455;-64
2022/09/30 09:55:50;;;;;;;11.30;7.15;;;15.20;99.90;;;;;;5046039;28;20149;-65
2022/09/30 09:58:16;;;;;;;9.95;6.10;;;15.20;99.90;;;;;;5019505;28;20049;-65
2022/09/30 10:03:19;;;;;;;11.82;7.40;;;15.20;99.90;;;;;;5019472;28;20498;-65
2022/09/30 10:06:03;;;;;;;10.85;5.70;;;15.30;99.90;;;;;;5029833;28;20523;-64
2022/09/30 10:08:32;;;;;;;10.77;5.05;;;15.30;99.90;;;;;;5014146;28;20045;-64
2022/09/30 10:11:02;;;;;;;9.02;5.13;;;15.30;99.90;;;;;;5012733;28;20068;-65
2022/09/30 10:13:30;;;;;;;9.82;5.03;;;15.40;99.90;;;;;;5016494;28;20052;-65
2022/09/30 10:15:58;;;;;;;8.20;4.95;;;15.40;99.90;;;;;;5013785;28;20072;-64
2022/09/30 10:18:31;;;;;;;10.98;5.28;;;15.30;99.90;;;;;;5001170;28;20052;-65
2022/09/30 10:21:00;;;;;;;8.50;5.60;;;15.40;99.90;;;;;;5047896;28;20057;-64
2022/09/30 10:23:28;;;;;;;5.65;4.63;;;15.40;99.90;;;;;;5035103;28;20050;-65
2022/09/30 10:25:59;;;;;;;11.48;4.78;;;15.40;99.90;;;;;;5013692;28;20056;-64
2022/09/30 10:28:28;;;;;;;6.68;5.05;;;15.40;99.90;;;;;;5017687;28;20056;-64
2022/09/30 10:31:06;;;;;;;6.70;4.32;;;15.50;99.90;;;;;;5016096;28;20065;-64
2022/09/30 10:33:47;;;;;;;6.43;4.35;;;15.50;99.90;;;;;;5038882;28;20061;-64
2022/09/30 10:36:18;;;;;;;8.40;4.47;;;15.60;99.90;;;;;;4997931;28;20057;-64
2022/09/30 10:39:04;;;;;;;8.10;5.03;;;15.60;99.90;;;;;;5018868;28;20059;-65
2022/09/30 10:41:34;;;;;;;16.05;4.90;;;15.60;99.90;;;;;;5051439;28;20549;-64
2022/09/30 10:44:06;;;;;;;5.15;4.15;;;15.60;99.90;;;;;;5015364;28;20061;-64
2022/09/30 10:46:37;;;;;;;6.22;4.07;;;15.60;99.90;;;;;;5033512;28;20095;-65
2022/09/30 10:49:40;;;;;;;6.13;3.90;;;15.60;99.90;;;;;;5014029;28;20045;-64
2022/09/30 10:52:17;;;;;;;7.30;3.90;;;15.70;99.90;;;;;;5051281;28;20570;-64
2022/09/30 10:55:19;;;;;;;6.47;4.35;;;15.70;99.90;;;;;;5012926;28;20048;-64
2022/09/30 10:57:47;;;;;;;7.28;4.97;;;15.80;99.90;;;;;;5024071;28;20069;-63
2022/09/30 11:00:20;;;;;;;7.90;4.00;;;15.90;99.90;;;;;;5011899;28;20091;-64
2022/09/30 11:03:06;;;;;;;6.13;3.53;;;16.00;99.90;;;;;;5030982;28;20046;-64
2022/09/30 11:05:34;;;;;;;9.15;4.15;;;16.00;99.90;;;;;;5024345;28;20480;-63
2022/09/30 11:08:21;;;;;;;6.55;3.50;;;16.10;99.90;;;;;;5014067;28;20075;-63
2022/09/30 11:11:12;;;;;;;10.75;4.25;;;16.30;99.90;;;;;;5039920;28;20411;-64
2022/09/30 11:13:58;;;;;;;5.35;3.75;;;16.30;99.90;;;;;;5030596;28;20041;-64
2022/09/30 11:16:51;;;;;;;7.30;3.65;;;16.20;99.90;;;;;;5030659;28;20057;-64
2022/09/30 11:19:23;;;;;;;5.43;3.25;;;16.20;99.90;;;;;;5018877;28;20110;-64
2022/09/30 11:21:55;;;;;;;5.25;3.75;;;16.20;99.90;;;;;;5034790;28;20063;-64
2022/09/30 11:24:36;;;;;;;5.00;3.40;;;16.20;99.90;;;;;;5039022;28;20040;-64
2022/09/30 11:27:42;;;;;;;6.13;2.90;;;16.30;99.90;;;;;;5020966;28;20215;-64
2022/09/30 11:30:31;;;;;;;6.43;3.35;;;16.40;99.90;;;;;;5023077;28;20041;-65
2022/09/30 11:33:17;;;;;;;5.82;3.10;;;16.50;99.90;;;;;;5019040;28;20561;-65
2022/09/30 11:36:21;;;;;;;7.35;3.00;;;16.60;99.90;;;;;;5029822;28;20051;-64
2022/09/30 11:38:57;;;;;;;9.00;3.25;;;16.60;99.90;;;;;;5033745;28;20515;-64
2022/09/30 11:41:37;;;;;;;8.68;2.85;;;16.70;99.90;;;;;;5026532;28;20052;-65
2022/09/30 11:44:29;;;;;;;3.33;2.88;;;16.60;99.90;;;;;;5000627;28;20140;-63
2022/09/30 11:47:05;;;;;;;4.57;3.42;;;16.60;99.90;;;;;;5035519;28;20055;-64
2022/09/30 11:49:39;;;;;;;5.57;2.50;;;16.60;99.90;;;;;;5051757;28;20493;-63
2022/09/30 11:52:38;;;;;;;7.03;2.67;;;16.60;99.90;;;;;;5024886;28;20512;-63
2022/09/30 11:55:11;;;;;;;5.07;2.05;;;16.70;99.90;;;;;;4996110;28;20124;-64
2022/09/30 11:57:57;;;;;;;3.45;1.83;;;16.70;99.90;;;;;;5028751;28;20519;-64
2022/09/30 12:00:28;;;;;;;3.88;2.30;;;16.80;99.90;;;;;;5016154;28;20130;-64
2022/09/30 12:03:27;;;;;;;7.10;2.40;;;16.70;99.90;;;;;;5011644;28;20053;-64
2022/09/30 12:05:56;;;;;;;4.18;2.20;;;16.60;99.90;;;;;;5031520;28;20293;-64
2022/09/30 12:08:35;;;;;;;3.67;1.75;;;16.60;99.90;;;;;;5014189;28;20526;-65
2022/09/30 12:11:07;;;;;;;2.85;2.22;;;16.60;99.90;;;;;;5015642;28;20058;-64
2022/09/30 12:13:39;;;;;;;2.20;1.80;;;16.60;99.90;;;;;;5024706;28;20045;-66
2022/09/30 12:16:13;;;;;;;5.80;1.88;;;16.60;99.90;;;;;;5015924;28;20133;-64
2022/09/30 12:18:41;;;;;;;6.97;1.73;;;16.60;99.90;;;;;;5036270;28;20055;-64
2022/09/30 12:21:22;;;;;;;2.47;1.88;;;16.60;99.90;;;;;;5031544;28;20041;-64
2022/09/30 12:24:00;;;;;;;5.63;2.50;;;16.50;99.90;;;;;;5018555;28;20047;-64
2022/09/30 12:26:27;;;;;;;4.68;2.03;;;16.60;99.90;;;;;;5035486;28;20088;-64
2022/09/30 12:32:00;;;;;;;2.33;1.40;;;16.60;99.90;;;;;;5031247;28;20477;-65
2022/09/30 12:34:30;;;;;;;2.35;1.50;;;16.70;99.90;;;;;;5050026;28;20055;-65
2022/09/30 12:37:01;;;;;;;2.10;1.50;;;16.70;99.90;;;;;;5045991;28;20413;-65
2022/09/30 12:39:58;;;;;;;2.45;1.30;;;16.80;99.90;;;;;;5016096;28;20083;-65
2022/09/30 12:42:44;;;;;;;1.75;1.27;;;16.90;99.90;;;;;;5048974;28;20112;-66
2022/09/30 12:45:33;;;;;;;6.88;1.38;;;17.00;99.90;;;;;;5041994;28;20131;-65
2022/09/30 12:48:07;;;;;;;5.05;1.67;;;17.10;99.90;;;;;;5004672;28;20061;-64
2022/09/30 12:50:40;;;;;;;1.95;1.40;;;17.10;99.90;;;;;;5027035;28;20049;-65
2022/09/30 12:53:16;;;;;;;4.57;1.20;;;17.20;99.90;;;;;;5029148;28;20054;-64
2022/09/30 12:55:43;;;;;;;2.95;1.73;;;17.30;99.90;;;;;;5021230;28;20056;-64
2022/09/30 12:58:31;;;;;;;2.95;1.38;;;17.30;99.90;;;;;;5016096;28;20045;-64
2022/09/30 13:01:05;;;;;;;2.83;1.60;;;17.20;99.90;;;;;;5020688;28;20053;-64
2022/09/30 13:03:51;;;;;;;2.13;1.45;;;17.20;99.90;;;;;;5025122;28;20068;-64
2022/09/30 13:06:21;;;;;;;2.85;1.75;;;17.00;99.90;;;;;;5040327;28;20044;-64
2022/09/30 13:09:25;;;;;;;2.80;1.17;;;17.00;99.90;;;;;;5010163;28;20059;-64
2022/09/30 13:11:54;;;;;;;2.97;1.00;;;17.00;99.90;;;;;;5024938;28;20059;-64
2022/09/30 13:14:43;;;;;;;4.63;1.60;;;16.90;99.90;;;;;;5041163;28;20047;-65
2022/09/30 13:17:10;;;;;;;3.30;1.30;;;16.80;99.90;;;;;;5033638;28;20049;-66
2022/09/30 13:19:39;;;;;;;1.80;1.10;;;16.80;99.90;;;;;;5043453;28;20042;-65